»·PEaware :: N20791 KRAL-KSAN

N20791 :: KRAL-KSAN

FLIGHT INFORMATION

Flight Status: Arrived
Operator: Privately registered:
United States
More flights under this callsign
Pilot: Russell T. (852)
Aircraft: CESSNA 182 SKYLANE
(C182)
More flights by this aircraft type
Origin: KRAL Riverside Mun
United States
Destination: KSAN San Diego Intl-Lindbergh
United States
More flights between these airports :: More routes between these airports
Route: +PDZ V186 TANNR V186 HAILE V66 MZB
File this flight plan on PilotEdge
Remarks: alpha
Altitude:
(Current/Filed)
6,000ft
Speed:
(Current/Filed)
135kts
Departed: 11-Oct-17 03:14 PM
Arrived: 11-Oct-17 04:07 PM
Distance/Time
Traveled:
74nm/0:53
Distance/Time
To Go:
Arrived

Flight Plot

Page will automatically refresh every two minutes.

Flight plan parsing failed; only flown route is shown


Map Options




Map Legend


Flown Route
Filed Route
Departure Airport
Arrival Airport
Navaid (VOR, NDB)
Fix

Horizontal Profiles

Position Reports

Time Latitude Longitude Heading Altitude Ground
Speed
11-Oct-17 14:57 33.950727 -117.445055 191 821ft 0kts
11-Oct-17 14:58 33.950726 -117.445056 191 821ft 0kts
11-Oct-17 14:59 33.950725 -117.445056 191 821ft 0kts
11-Oct-17 15:00 33.950723 -117.445056 191 821ft 0kts
11-Oct-17 15:01 33.950722 -117.445056 191 821ft 0kts
11-Oct-17 15:02 33.950721 -117.445057 191 821ft 0kts
11-Oct-17 15:03 33.950720 -117.445057 191 821ft 0kts
11-Oct-17 15:04 33.950718 -117.445057 191 821ft 0kts
11-Oct-17 15:05 33.950717 -117.445058 191 821ft 0kts
11-Oct-17 15:06 33.950716 -117.445058 191 821ft 0kts
11-Oct-17 15:07 33.950715 -117.445058 191 821ft 0kts
11-Oct-17 15:08 33.950713 -117.445059 191 821ft 0kts
11-Oct-17 15:09 33.950712 -117.445059 191 821ft 0kts
11-Oct-17 15:10 33.950711 -117.445059 191 821ft 0kts
11-Oct-17 15:11 33.951293 -117.444778 72 821ft 7kts
11-Oct-17 15:12 33.951366 -117.442821 104 821ft 5kts
11-Oct-17 15:13 33.950878 -117.440420 102 821ft 8kts
11-Oct-17 15:14 33.950284 -117.437290 103 821ft 10kts
11-Oct-17 15:15 33.950043 -117.434980 12 821ft 0kts
11-Oct-17 15:16 33.950044 -117.434980 12 821ft 0kts
11-Oct-17 15:17 33.950414 -117.434918 357 821ft 8kts
11-Oct-17 15:18 33.953395 -117.449229 283 1015ft 86kts
11-Oct-17 15:19 33.959288 -117.478247 283 1847ft 91kts
11-Oct-17 15:20 33.965450 -117.511774 281 2198ft 120kts
11-Oct-17 15:21 33.954629 -117.532413 159 3039ft 90kts
11-Oct-17 15:22 33.932213 -117.525220 185 3918ft 77kts
11-Oct-17 15:23 33.905978 -117.520506 142 4203ft 107kts
11-Oct-17 15:24 33.882556 -117.499960 144 4970ft 103kts
11-Oct-17 15:25 33.858950 -117.480031 148 5765ft 103kts
11-Oct-17 15:26 33.835603 -117.460481 155 6567ft 100kts
11-Oct-17 15:27 33.813155 -117.441697 156 7364ft 94kts
11-Oct-17 15:28 33.792286 -117.424260 156 8070ft 92kts
11-Oct-17 15:29 33.770665 -117.406186 156 8708ft 96kts
11-Oct-17 15:30 33.746003 -117.385710 153 8993ft 131kts
11-Oct-17 15:31 33.713280 -117.358275 151 8999ft 150kts
11-Oct-17 15:32 33.678700 -117.329363 151 8994ft 151kts
11-Oct-17 15:33 33.644321 -117.300672 152 8997ft 150kts
11-Oct-17 15:34 33.609903 -117.272037 152 9000ft 150kts
11-Oct-17 15:36 33.575595 -117.243497 152 9000ft 150kts
11-Oct-17 15:37 33.541266 -117.214970 152 9000ft 150kts
11-Oct-17 15:38 33.506903 -117.186214 152 9000ft 150kts
11-Oct-17 15:39 33.472459 -117.157921 152 9000ft 150kts
11-Oct-17 15:40 33.437892 -117.129567 152 9000ft 150kts
11-Oct-17 15:41 33.403410 -117.101603 149 9010ft 152kts
11-Oct-17 15:42 33.368610 -117.074441 153 9003ft 149kts
11-Oct-17 15:43 33.333752 -117.046848 153 9001ft 150kts
11-Oct-17 15:44 33.298983 -117.019348 153 9000ft 150kts
11-Oct-17 15:45 33.264083 -116.991758 153 9000ft 150kts
11-Oct-17 15:46 33.229311 -116.964280 153 9000ft 150kts
11-Oct-17 15:47 33.194531 -116.936807 153 9000ft 150kts
11-Oct-17 15:48 33.159629 -116.909248 153 9000ft 150kts
11-Oct-17 15:49 33.124840 -116.881790 153 9000ft 150kts
11-Oct-17 15:50 33.090040 -116.854337 153 9001ft 150kts
11-Oct-17 15:51 33.055125 -116.826805 153 9000ft 150kts
11-Oct-17 15:52 33.020299 -116.799358 153 9000ft 150kts
11-Oct-17 15:53 32.984352 -116.771254 153 8588ft 161kts
11-Oct-17 15:54 32.945350 -116.744438 183 7765ft 156kts
11-Oct-17 15:55 32.904086 -116.751862 196 6974ft 149kts
11-Oct-17 15:56 32.863085 -116.759973 196 6162ft 150kts
11-Oct-17 15:57 32.821735 -116.770350 196 5356ft 153kts
11-Oct-17 15:58 32.783854 -116.781064 196 5199ft 126kts
11-Oct-17 15:59 32.747172 -116.790876 196 5208ft 143kts
11-Oct-17 16:00 32.710679 -116.807087 246 5189ft 137kts
11-Oct-17 16:01 32.696150 -116.848920 251 5201ft 137kts
11-Oct-17 16:02 32.685132 -116.891384 261 5126ft 136kts
11-Oct-17 16:03 32.678814 -116.936526 268 4277ft 140kts
11-Oct-17 16:04 32.685711 -116.980995 281 3795ft 125kts
11-Oct-17 16:05 32.691884 -117.018826 281 3690ft 119kts
11-Oct-17 16:06 32.698082 -117.054409 281 3090ft 104kts
11-Oct-17 16:07 32.703064 -117.082388 290 2784ft 79kts
11-Oct-17 16:08 32.710517 -117.104974 295 2024ft 69kts
11-Oct-17 16:09 32.717831 -117.126277 290 1238ft 69kts
11-Oct-17 16:10 32.723597 -117.147524 286 676ft 66kts
11-Oct-17 16:11 32.728464 -117.168209 285 281ft 66kts
11-Oct-17 16:12 32.732626 -117.185483 287 18ft 21kts
11-Oct-17 16:13 32.733516 -117.186890 15 18ft 0kts
11-Oct-17 16:14 32.732635 -117.181976 85 18ft 11kts
11-Oct-17 16:15 32.733320 -117.181758 16 18ft 0kts
11-Oct-17 16:16 32.733322 -117.181758 16 18ft 0kts
11-Oct-17 16:17 32.733323 -117.181757 16 18ft 0kts
11-Oct-17 16:18 32.733323 -117.181757 16 18ft 0kts

Navigation Log

Ident Type
Flight plan parsing failed, navigation log unavailable